createdAt,value
2017-09-05T00:00:19.895Z,13.70
2017-09-05T00:02:48.393Z,14.57
2017-09-05T00:05:17.362Z,15.57
2017-09-05T00:08:00.631Z,14.43
2017-09-05T00:10:29.284Z,14.07
2017-09-05T00:12:59.911Z,22.43
2017-09-05T00:15:29.119Z,15.93
2017-09-05T00:21:03.163Z,12.97
2017-09-05T00:23:32.710Z,15.73
2017-09-05T00:26:01.111Z,15.27
2017-09-05T00:28:30.481Z,14.53
2017-09-05T00:30:59.442Z,13.20
2017-09-05T00:33:28.714Z,13.43
2017-09-05T00:35:57.126Z,12.97
2017-09-05T00:38:27.861Z,13.83
2017-09-05T00:40:56.648Z,13.67
2017-09-05T00:43:25.482Z,13.57
2017-09-05T00:45:54.369Z,21.33
2017-09-05T00:48:22.816Z,14.17
2017-09-05T00:50:51.195Z,14.20
2017-09-05T00:53:20.967Z,16.10
2017-09-05T00:55:49.487Z,19.53
2017-09-05T00:58:17.867Z,14.20
2017-09-05T01:00:47.176Z,14.37
2017-09-05T01:03:15.542Z,13.80
2017-09-05T01:05:44.585Z,14.47
2017-09-05T01:08:13.198Z,15.70
2017-09-05T01:10:41.556Z,15.47
2017-09-05T01:13:12.663Z,16.50
2017-09-05T01:15:41.478Z,17.87
2017-09-05T01:18:09.850Z,14.87
2017-09-05T01:20:38.325Z,15.57
2017-09-05T01:23:08.180Z,18.83
2017-09-05T01:25:37.435Z,16.83
2017-09-05T01:28:06.812Z,21.00
2017-09-05T01:30:35.460Z,16.73
2017-09-05T01:33:03.864Z,16.03
2017-09-05T01:35:33.040Z,26.13
2017-09-05T01:38:01.902Z,14.40
2017-09-05T01:40:30.660Z,14.80
2017-09-05T01:42:59.607Z,16.30
2017-09-05T01:45:28.783Z,14.27
2017-09-05T01:47:58.046Z,14.07
2017-09-05T01:50:26.399Z,13.30
2017-09-05T01:52:55.046Z,14.17
2017-09-05T01:55:23.423Z,14.80
2017-09-05T01:57:52.597Z,15.43
2017-09-05T02:00:21.524Z,15.57
2017-09-05T02:02:49.919Z,15.53
2017-09-05T02:05:18.299Z,23.10
2017-09-05T02:07:48.055Z,19.23
2017-09-05T02:10:16.440Z,18.23
2017-09-05T02:12:45.463Z,14.10
2017-09-05T02:15:15.690Z,15.53
2017-09-05T02:17:44.036Z,14.93
2017-09-05T02:20:12.387Z,14.20
2017-09-05T02:22:41.946Z,15.50
2017-09-05T02:25:10.791Z,14.60
2017-09-05T02:27:39.147Z,16.40
2017-09-05T02:30:08.065Z,16.50
2017-09-05T02:32:36.456Z,16.10
2017-09-05T02:35:05.657Z,16.53
2017-09-05T02:37:34.533Z,19.47
2017-09-05T02:40:03.521Z,16.30
2017-09-05T02:42:31.878Z,16.33
2017-09-05T02:45:00.867Z,23.10
2017-09-05T02:47:29.213Z,14.30
2017-09-05T02:49:57.748Z,15.73
2017-09-05T02:52:26.886Z,15.67
2017-09-05T02:54:56.225Z,15.67
2017-09-05T02:57:24.888Z,15.00
2017-09-05T02:59:55.134Z,20.20
2017-09-05T03:02:23.533Z,15.23
2017-09-05T03:04:52.713Z,14.70
2017-09-05T03:07:21.763Z,14.83
2017-09-05T03:09:51.039Z,19.07
2017-09-05T03:12:19.531Z,17.93
2017-09-05T03:14:48.510Z,17.60
2017-09-05T03:17:16.885Z,15.83
2017-09-05T03:19:47.078Z,15.53
2017-09-05T03:22:16.372Z,18.33
2017-09-05T03:24:44.751Z,14.33
2017-09-05T03:27:13.777Z,15.87
2017-09-05T03:29:43.215Z,15.30
2017-09-05T03:32:11.658Z,14.70
2017-09-05T03:34:40.454Z,14.33
2017-09-05T03:37:10.125Z,12.97
2017-09-05T03:39:38.505Z,17.00
2017-09-05T03:42:06.947Z,14.10
2017-09-05T03:44:36.505Z,15.13
2017-09-05T03:47:04.899Z,14.60
2017-09-05T03:49:33.323Z,13.73
2017-09-05T03:52:02.764Z,15.63
2017-09-05T03:54:31.916Z,16.77
2017-09-05T03:57:01.053Z,14.17
2017-09-05T03:59:29.958Z,17.33
2017-09-05T04:01:59.276Z,14.40
2017-09-05T04:04:27.670Z,14.20
2017-09-05T04:06:57.257Z,13.90
2017-09-05T04:09:26.326Z,13.70
2017-09-05T04:11:54.782Z,14.20
2017-09-05T04:14:24.622Z,16.43
2017-09-05T04:16:53.074Z,15.83
2017-09-05T04:19:23.218Z,13.90
2017-09-05T04:21:52.065Z,17.90
2017-09-05T04:24:20.943Z,14.80
2017-09-05T04:26:49.385Z,18.77
2017-09-05T04:29:18.102Z,16.77
2017-09-05T04:31:46.963Z,17.10
2017-09-05T04:34:15.874Z,15.17
2017-09-05T04:36:44.740Z,29.17
2017-09-05T04:39:13.083Z,16.20
2017-09-05T04:41:41.438Z,16.67
2017-09-05T04:44:11.203Z,20.50
2017-09-05T04:46:39.831Z,17.73
2017-09-05T04:49:08.224Z,19.70
2017-09-05T04:51:37.080Z,16.23
2017-09-05T04:54:06.268Z,19.23
2017-09-05T04:56:35.047Z,15.37
2017-09-05T04:59:03.674Z,17.87
2017-09-05T05:01:32.030Z,22.67
2017-09-05T05:04:01.181Z,16.70
2017-09-05T05:06:30.233Z,16.93
2017-09-05T05:08:58.626Z,15.50
2017-09-05T05:11:26.982Z,19.30
2017-09-05T05:13:55.736Z,15.37
2017-09-05T05:16:25.360Z,22.47
2017-09-05T05:18:53.764Z,14.77
2017-09-05T05:21:23.920Z,14.03
2017-09-05T05:23:52.296Z,15.30
2017-09-05T05:26:20.685Z,13.07
2017-09-05T05:28:50.653Z,15.60
2017-09-05T05:31:19.009Z,13.10
2017-09-05T05:33:48.396Z,15.30
2017-09-05T05:36:17.324Z,24.47
2017-09-05T05:38:45.768Z,15.80
2017-09-05T05:41:14.179Z,14.70
2017-09-05T05:43:43.027Z,13.80
2017-09-05T05:46:11.510Z,14.20
2017-09-05T05:48:39.983Z,21.43
2017-09-05T05:51:09.355Z,24.13
2017-09-05T05:53:38.404Z,18.83
2017-09-05T05:56:07.612Z,24.07
2017-09-05T05:58:36.435Z,22.60
2017-09-05T06:01:04.833Z,20.10
2017-09-05T06:03:33.258Z,18.23
2017-09-05T06:06:01.942Z,17.50
2017-09-05T06:08:31.266Z,15.50
2017-09-05T06:11:00.104Z,20.13
2017-09-05T06:13:29.127Z,26.20
2017-09-05T06:15:58.316Z,17.67
2017-09-05T06:18:27.422Z,16.60
2017-09-05T06:20:56.102Z,51.90
2017-09-05T06:23:24.518Z,17.03
2017-09-05T06:25:52.884Z,21.60
2017-09-05T06:28:21.574Z,19.13
2017-09-05T06:30:50.357Z,23.50
2017-09-05T06:33:18.746Z,19.70
2017-09-05T06:35:47.634Z,23.50
2017-09-05T06:38:16.029Z,26.90
2017-09-05T06:40:44.405Z,20.50
2017-09-05T06:43:13.774Z,19.67
2017-09-05T06:45:42.246Z,21.20
2017-09-05T06:48:11.538Z,24.40
2017-09-05T06:50:42.329Z,24.73
2017-09-05T06:53:10.709Z,31.50
2017-09-05T06:55:39.079Z,20.20
2017-09-05T06:58:08.103Z,23.60
2017-09-05T07:00:36.645Z,24.60
2017-09-05T07:03:05.058Z,21.03
2017-09-05T07:05:33.851Z,18.37
2017-09-05T07:08:02.201Z,20.47
2017-09-05T07:10:30.757Z,29.53
2017-09-05T07:13:01.106Z,24.40
2017-09-05T07:15:30.511Z,19.80
2017-09-05T07:17:58.862Z,19.70
2017-09-05T07:20:28.511Z,30.53
2017-09-05T07:22:57.008Z,30.33
2017-09-05T07:25:26.332Z,20.47
2017-09-05T07:27:56.632Z,22.33
2017-09-05T07:30:25.023Z,25.20
2017-09-05T07:32:53.791Z,19.47
2017-09-05T07:35:24.344Z,22.93
2017-09-05T07:37:53.133Z,20.07
2017-09-05T07:40:21.502Z,22.80
2017-09-05T07:42:50.686Z,19.57
2017-09-05T07:45:19.049Z,17.03
2017-09-05T07:47:47.424Z,16.90
2017-09-05T07:50:16.101Z,17.63
2017-09-05T07:52:45.167Z,20.20
2017-09-05T07:55:13.602Z,17.03
2017-09-05T07:57:42.457Z,15.70
2017-09-05T08:00:10.815Z,16.33
2017-09-05T08:02:39.227Z,43.37
2017-09-05T08:05:08.570Z,27.53
2017-09-05T08:07:36.949Z,26.23
2017-09-05T08:10:05.889Z,14.40
2017-09-05T08:12:34.538Z,23.13
2017-09-05T08:15:02.972Z,24.23
2017-09-05T08:17:32.348Z,20.40
2017-09-05T08:20:03.892Z,20.03
2017-09-05T08:22:32.308Z,28.97
2017-09-05T08:25:00.713Z,21.20
2017-09-05T08:27:30.055Z,26.47
2017-09-05T08:29:59.696Z,31.60
2017-09-05T08:32:28.144Z,19.20
2017-09-05T08:34:56.847Z,16.97
2017-09-05T08:37:25.271Z,21.17
2017-09-05T08:39:53.660Z,18.03
2017-09-05T08:42:22.326Z,23.00
2017-09-05T08:44:51.423Z,14.80
2017-09-05T08:47:19.804Z,19.43
2017-09-05T08:49:48.859Z,23.33
2017-09-05T08:52:17.259Z,19.60
2017-09-05T08:54:45.978Z,19.00
2017-09-05T08:57:17.622Z,15.37
2017-09-05T08:59:46.370Z,23.13
2017-09-05T09:02:15.535Z,15.83
2017-09-05T09:04:44.186Z,20.10
2017-09-05T09:07:12.590Z,18.70
2017-09-05T09:09:40.944Z,19.20
2017-09-05T09:12:09.892Z,21.73
2017-09-05T09:14:38.363Z,23.10
2017-09-05T09:17:06.722Z,17.53
2017-09-05T09:19:35.506Z,24.33
2017-09-05T09:22:03.871Z,22.50
2017-09-05T09:24:32.707Z,16.87
2017-09-05T09:27:01.359Z,21.03
2017-09-05T09:29:29.774Z,20.20
2017-09-05T09:31:58.287Z,17.10
2017-09-05T09:34:27.079Z,19.17
2017-09-05T09:36:55.442Z,20.97
2017-09-05T09:39:24.356Z,18.83
2017-09-05T09:41:53.285Z,23.73
2017-09-05T09:44:21.660Z,15.43
2017-09-05T09:46:50.791Z,20.73
2017-09-05T09:49:19.419Z,16.53
2017-09-05T09:51:47.780Z,25.63
2017-09-05T09:54:16.156Z,33.33
2017-09-05T09:56:44.931Z,17.40
2017-09-05T09:59:14.174Z,17.80
2017-09-05T10:01:42.553Z,14.77
2017-09-05T10:04:11.244Z,15.23
2017-09-05T10:06:39.658Z,17.07
2017-09-05T10:09:08.848Z,20.73
2017-09-05T10:11:38.665Z,13.73
2017-09-05T10:14:07.040Z,19.37
2017-09-05T10:16:35.416Z,13.07
2017-09-05T10:19:04.325Z,23.33
2017-09-05T10:21:32.751Z,24.33
2017-09-05T10:24:01.914Z,14.13
2017-09-05T10:26:32.229Z,12.47
2017-09-05T10:29:00.613Z,14.43
2017-09-05T10:31:28.986Z,14.93
2017-09-05T10:33:58.600Z,12.97
2017-09-05T10:36:27.738Z,11.70
2017-09-05T10:38:56.105Z,9.20
2017-09-05T10:41:28.256Z,9.63
2017-09-05T10:43:56.625Z,11.00
2017-09-05T10:46:25.760Z,13.00
2017-09-05T10:48:54.576Z,12.00
2017-09-05T10:51:22.941Z,10.77
2017-09-05T10:53:51.298Z,10.37
2017-09-05T10:56:20.367Z,11.30
2017-09-05T10:58:48.748Z,10.13
2017-09-05T11:01:17.356Z,11.07
2017-09-05T11:03:46.320Z,12.50
2017-09-05T11:06:14.709Z,18.17
2017-09-05T11:08:43.128Z,10.10
2017-09-05T11:11:11.848Z,11.40
2017-09-05T11:13:40.630Z,12.73
2017-09-05T11:16:08.984Z,11.47
2017-09-05T11:18:37.890Z,12.20
2017-09-05T11:21:06.247Z,8.17
2017-09-05T11:23:34.722Z,8.90
2017-09-05T11:26:03.874Z,10.63
2017-09-05T11:28:32.430Z,8.80
2017-09-05T11:31:01.664Z,8.00
2017-09-05T11:33:31.792Z,6.87
2017-09-05T11:36:00.193Z,7.17
2017-09-05T11:38:29.958Z,10.73
2017-09-05T11:40:58.721Z,11.83
2017-09-05T11:43:27.102Z,6.40
2017-09-05T11:45:55.521Z,6.13
2017-09-05T11:48:24.801Z,5.40
2017-09-05T11:50:53.230Z,7.67
2017-09-05T11:53:22.353Z,7.27
2017-09-05T11:55:51.532Z,6.20
2017-09-05T11:58:19.907Z,12.57
2017-09-05T12:00:48.479Z,6.30
2017-09-05T12:03:17.608Z,16.60
2017-09-05T12:05:46.526Z,7.73
2017-09-05T12:08:14.951Z,6.60
2017-09-05T12:10:43.993Z,6.00
2017-09-05T12:13:12.341Z,6.00
2017-09-05T12:15:41.569Z,7.10
2017-09-05T12:18:10.710Z,6.70
2017-09-05T12:20:40.142Z,5.53
2017-09-05T12:23:08.498Z,6.30
2017-09-05T12:25:37.515Z,6.13
2017-09-05T12:28:06.046Z,7.50
2017-09-05T12:30:34.407Z,5.20
2017-09-05T12:33:04.038Z,4.87
2017-09-05T12:35:32.451Z,5.23
2017-09-05T12:38:02.219Z,5.53
2017-09-05T12:40:31.814Z,5.63
2017-09-05T12:43:00.914Z,5.23
2017-09-05T12:45:29.309Z,5.37
2017-09-05T12:47:58.064Z,6.40
2017-09-05T12:50:26.547Z,6.03
2017-09-05T12:52:54.944Z,7.70
2017-09-05T12:55:24.928Z,5.47
2017-09-05T12:57:53.362Z,11.30
2017-09-05T13:00:21.774Z,5.53
2017-09-05T13:02:50.952Z,5.50
2017-09-05T13:05:20.018Z,5.53
2017-09-05T13:07:48.749Z,5.63
2017-09-05T13:10:18.300Z,4.10
2017-09-05T13:12:47.473Z,4.90
2017-09-05T13:15:15.889Z,6.67
2017-09-05T13:17:44.705Z,6.07
2017-09-05T13:20:13.128Z,4.30
2017-09-05T13:22:42.000Z,4.60
2017-09-05T13:25:10.868Z,4.87
2017-09-05T13:27:39.278Z,4.40
2017-09-05T13:30:08.100Z,6.23
2017-09-05T13:32:37.383Z,4.90
2017-09-05T13:35:05.790Z,6.00
2017-09-05T13:37:34.240Z,5.13
2017-09-05T13:40:03.386Z,5.33
2017-09-05T13:42:32.579Z,5.30
2017-09-05T13:45:02.001Z,7.43
2017-09-05T13:47:31.122Z,4.20
2017-09-05T13:55:05.688Z,4.37
2017-09-05T13:57:39.228Z,4.53
2017-09-05T14:00:07.668Z,5.77
2017-09-05T14:02:36.641Z,4.23
2017-09-05T14:05:05.422Z,4.30
2017-09-05T14:07:34.616Z,4.67
2017-09-05T14:10:04.126Z,4.83
2017-09-05T14:12:32.932Z,5.17
2017-09-05T14:15:01.517Z,5.03
2017-09-05T14:17:29.939Z,5.80
2017-09-05T14:20:00.548Z,4.80
2017-09-05T14:22:29.397Z,5.87
2017-09-05T14:24:58.678Z,5.60
2017-09-05T14:27:27.633Z,6.47
2017-09-05T14:29:56.106Z,7.33
2017-09-05T14:32:24.650Z,7.17
2017-09-05T14:34:53.505Z,5.57
2017-09-05T14:37:21.964Z,6.20
2017-09-05T14:39:50.676Z,9.50
2017-09-05T14:42:20.553Z,4.93
2017-09-05T14:44:49.013Z,10.43
2017-09-05T14:47:17.401Z,5.53
2017-09-05T14:49:46.151Z,5.73
2017-09-05T14:52:15.513Z,6.30
2017-09-05T14:54:43.944Z,5.00
2017-09-05T14:57:12.629Z,6.03
2017-09-05T14:59:41.855Z,7.20
2017-09-05T15:02:10.966Z,6.17
2017-09-05T15:04:39.996Z,6.93
2017-09-05T15:07:08.372Z,7.30
2017-09-05T15:09:36.835Z,6.43
2017-09-05T15:12:05.879Z,5.97
2017-09-05T15:14:35.079Z,5.77
2017-09-05T15:17:04.275Z,14.73
2017-09-05T15:19:33.842Z,6.93
2017-09-05T15:22:03.167Z,9.97
2017-09-05T15:24:31.558Z,18.53
2017-09-05T15:27:00.659Z,12.17
2017-09-05T15:29:30.862Z,4.77
2017-09-05T15:31:59.653Z,6.67
2017-09-05T15:34:28.836Z,4.40
2017-09-05T15:36:58.154Z,4.37
2017-09-05T15:39:26.589Z,5.03
2017-09-05T15:41:56.031Z,5.60
2017-09-05T15:44:24.468Z,11.47
2017-09-05T15:46:52.921Z,10.63
2017-09-05T15:49:24.630Z,7.90
2017-09-05T15:51:53.231Z,5.37
2017-09-05T15:54:22.211Z,11.43
2017-09-05T15:56:51.382Z,5.80
2017-09-05T15:59:19.781Z,8.90
2017-09-05T16:01:48.149Z,5.43
2017-09-05T16:04:17.051Z,8.50
2017-09-05T16:06:45.452Z,8.60
2017-09-05T16:09:13.800Z,5.93
2017-09-05T16:11:42.569Z,7.20
2017-09-05T16:14:10.919Z,5.57
2017-09-05T16:16:39.300Z,5.03
2017-09-05T16:19:07.946Z,6.73
2017-09-05T16:21:36.319Z,5.17
2017-09-05T16:24:04.666Z,4.80
2017-09-05T16:26:33.559Z,12.10
2017-09-05T16:29:02.772Z,9.23
2017-09-05T16:31:31.613Z,9.03
2017-09-05T16:34:00.495Z,7.80
2017-09-05T16:36:28.851Z,7.87
2017-09-05T16:38:57.212Z,7.43
2017-09-05T16:41:26.126Z,5.00
2017-09-05T16:43:55.758Z,5.93
2017-09-05T16:46:24.138Z,6.07
2017-09-05T16:48:52.801Z,8.93
2017-09-05T16:51:21.948Z,5.67
2017-09-05T16:53:50.319Z,7.20
2017-09-05T16:56:19.719Z,5.20
2017-09-05T16:58:48.117Z,5.30
2017-09-05T17:01:16.485Z,5.67
2017-09-05T17:03:45.961Z,5.27
2017-09-05T17:06:14.492Z,14.13
2017-09-05T17:08:42.918Z,6.50
2017-09-05T17:11:11.588Z,7.10
2017-09-05T17:13:39.959Z,6.03
2017-09-05T17:16:08.898Z,6.57
2017-09-05T17:18:37.897Z,11.83
2017-09-05T17:21:06.310Z,5.40
2017-09-05T17:23:34.669Z,5.17
2017-09-05T17:26:03.865Z,5.50
2017-09-05T17:28:32.250Z,12.50
2017-09-05T17:31:00.633Z,6.60
2017-09-05T17:33:29.471Z,5.80
2017-09-05T17:35:59.174Z,7.87
2017-09-05T17:38:27.968Z,15.20
2017-09-05T17:40:57.779Z,22.53
2017-09-05T17:43:26.155Z,6.80
2017-09-05T17:45:54.893Z,6.73
2017-09-05T17:48:23.548Z,6.73
2017-09-05T17:50:51.960Z,5.83
2017-09-05T17:53:21.188Z,5.80
2017-09-05T17:55:50.605Z,10.53
2017-09-05T17:58:19.026Z,6.90
2017-09-05T18:00:48.254Z,6.43
2017-09-05T18:03:17.902Z,6.70
2017-09-05T18:05:46.923Z,15.53
2017-09-05T18:08:15.296Z,10.20
2017-09-05T18:10:44.213Z,7.40
2017-09-05T18:13:13.409Z,6.27
2017-09-05T18:15:41.873Z,7.33
2017-09-05T18:18:13.442Z,11.57
2017-09-05T18:20:41.982Z,10.10
2017-09-05T18:23:10.381Z,7.17
2017-09-05T18:25:39.213Z,8.10
2017-09-05T18:28:08.549Z,7.30
2017-09-05T18:30:36.957Z,7.07
2017-09-05T18:33:05.832Z,12.00
2017-09-05T18:35:34.397Z,8.03
2017-09-05T18:38:02.986Z,8.13
2017-09-05T18:40:31.672Z,15.97
2017-09-05T18:43:00.062Z,16.03
2017-09-05T18:45:29.017Z,8.97
2017-09-05T18:47:58.195Z,12.00
2017-09-05T18:50:26.569Z,8.13
2017-09-05T18:52:54.965Z,8.33
2017-09-05T18:55:23.654Z,8.17
2017-09-05T18:57:52.379Z,8.20
2017-09-05T19:00:21.072Z,7.50
2017-09-05T19:02:49.868Z,8.00
2017-09-05T19:05:19.057Z,17.70
2017-09-05T19:07:47.501Z,14.33
2017-09-05T19:10:16.437Z,11.50
2017-09-05T19:12:46.372Z,13.60
2017-09-05T19:15:14.718Z,14.63
2017-09-05T19:17:44.335Z,8.30
2017-09-05T19:20:13.496Z,9.83
2017-09-05T19:22:41.866Z,8.20
2017-09-05T19:25:10.549Z,9.40
2017-09-05T19:27:38.931Z,19.43
2017-09-05T19:30:07.284Z,16.10
2017-09-05T19:32:36.078Z,16.13
2017-09-05T19:35:05.038Z,9.07
2017-09-05T19:37:33.401Z,12.33
2017-09-05T19:40:02.082Z,8.60
2017-09-05T19:42:31.256Z,10.87
2017-09-05T19:44:59.654Z,8.13
2017-09-05T19:47:29.768Z,11.63
2017-09-05T19:49:58.221Z,10.17
2017-09-05T19:52:28.562Z,8.43
2017-09-05T19:54:58.513Z,12.90
2017-09-05T19:57:27.672Z,14.20
2017-09-05T19:59:56.092Z,10.90
2017-09-05T20:02:24.893Z,9.27
2017-09-05T20:04:53.265Z,12.10
2017-09-05T20:07:22.093Z,11.00
2017-09-05T20:09:50.741Z,10.70
2017-09-05T20:12:19.124Z,8.73
2017-09-05T20:14:48.791Z,28.53
2017-09-05T20:17:17.822Z,8.47
2017-09-05T20:19:46.193Z,11.00
2017-09-05T20:22:14.673Z,10.07
2017-09-05T20:24:43.399Z,9.73
2017-09-05T20:27:12.453Z,11.03
2017-09-05T20:29:41.599Z,9.97
2017-09-05T20:32:10.268Z,9.63
2017-09-05T20:34:39.018Z,9.00
2017-09-05T20:37:07.468Z,9.70
2017-09-05T20:39:36.262Z,13.23
2017-09-05T20:42:04.666Z,10.17
2017-09-05T20:44:33.026Z,10.70
2017-09-05T20:47:01.728Z,13.67
2017-09-05T20:49:30.804Z,8.63
2017-09-05T20:51:59.141Z,10.30
2017-09-05T20:54:27.999Z,9.53
2017-09-05T20:56:56.433Z,10.10
2017-09-05T20:59:25.603Z,11.70
2017-09-05T21:01:54.425Z,15.40
2017-09-05T21:04:24.238Z,10.33
2017-09-05T21:06:53.987Z,9.93
2017-09-05T21:09:22.660Z,9.80
2017-09-05T21:11:51.422Z,17.43
2017-09-05T21:14:19.794Z,16.20
2017-09-05T21:16:48.557Z,11.20
2017-09-05T21:19:17.671Z,18.90
2017-09-05T21:21:46.045Z,12.37
2017-09-05T21:24:15.718Z,10.13
2017-09-05T21:26:44.867Z,11.13
2017-09-05T21:29:14.015Z,9.70
2017-09-05T21:31:42.706Z,12.50
2017-09-05T21:34:12.230Z,10.10
2017-09-05T21:36:41.367Z,10.27
2017-09-05T21:39:10.037Z,11.50
2017-09-05T21:41:38.501Z,17.17
2017-09-05T21:44:07.562Z,14.87
2017-09-05T21:46:36.429Z,9.07
2017-09-05T21:49:04.808Z,22.83
2017-09-05T21:51:33.285Z,11.10
2017-09-05T21:54:02.152Z,10.70
2017-09-05T21:56:30.509Z,10.80
2017-09-05T21:58:58.866Z,8.37
2017-09-05T22:01:27.588Z,13.07
2017-09-05T22:03:56.231Z,9.77
2017-09-05T22:06:24.620Z,10.53
2017-09-05T22:08:53.829Z,9.90
2017-09-05T22:11:22.228Z,9.97
2017-09-05T22:13:56.648Z,10.13
2017-09-05T22:16:30.406Z,10.43
2017-09-05T22:19:04.590Z,9.50
2017-09-05T22:21:33.896Z,13.93
2017-09-05T22:24:04.110Z,32.47
2017-09-05T22:26:38.779Z,10.23
2017-09-05T22:29:09.964Z,10.90
2017-09-05T22:31:38.364Z,10.10
2017-09-05T22:34:07.668Z,14.73
2017-09-05T22:36:36.812Z,9.60
2017-09-05T22:39:06.550Z,10.70
2017-09-05T22:41:35.235Z,16.43
2017-09-05T22:44:03.666Z,12.60
2017-09-05T22:46:33.070Z,10.33
2017-09-05T22:49:02.530Z,9.80
2017-09-05T22:51:31.100Z,8.63
2017-09-05T22:54:03.044Z,27.20
2017-09-05T22:56:31.954Z,9.90
2017-09-05T22:59:01.122Z,18.00
2017-09-05T23:01:29.747Z,15.30
2017-09-05T23:03:59.751Z,10.30
2017-09-05T23:06:28.222Z,9.57
2017-09-05T23:08:57.944Z,14.60
2017-09-05T23:11:27.270Z,15.23
2017-09-05T23:13:56.478Z,15.07
2017-09-05T23:16:25.792Z,14.33
2017-09-05T23:18:56.171Z,11.20
2017-09-05T23:21:25.408Z,14.23
2017-09-05T23:23:53.844Z,14.33
2017-09-05T23:26:23.014Z,10.60
2017-09-05T23:28:51.455Z,16.13
2017-09-05T23:31:20.017Z,10.67
2017-09-05T23:33:50.604Z,11.23
2017-09-05T23:36:19.099Z,11.33
2017-09-05T23:38:48.412Z,14.13
2017-09-05T23:41:17.936Z,12.10
2017-09-05T23:43:46.473Z,10.63
2017-09-05T23:46:14.899Z,10.87
2017-09-05T23:48:43.935Z,11.40
2017-09-05T23:51:12.359Z,16.00
2017-09-05T23:53:41.161Z,18.23
2017-09-05T23:56:10.628Z,15.13
2017-09-05T23:58:39.250Z,11.50
